createdAt,value
2022-10-18T00:00:58.933Z,12.0
2022-10-18T00:03:58.317Z,13.0
2022-10-18T00:06:58.525Z,13.5
2022-10-18T00:09:59.116Z,14.0
2022-10-18T00:12:59.532Z,13.937
2022-10-18T00:15:58.622Z,14.187
2022-10-18T00:18:59.158Z,14.5
2022-10-18T00:21:59.484Z,14.812
2022-10-18T00:24:58.494Z,14.562
2022-10-18T00:27:58.425Z,14.562
2022-10-18T00:30:58.364Z,14.625
2022-10-18T00:33:58.506Z,14.625
2022-10-18T00:36:58.331Z,14.125
2022-10-18T00:39:59.486Z,14.5
2022-10-18T00:42:58.159Z,14.5
2022-10-18T00:45:59.276Z,14.812
2022-10-18T00:48:58.371Z,15.0
2022-10-18T00:52:05.141Z,14.875
2022-10-18T00:54:58.237Z,14.5
2022-10-18T00:57:58.939Z,14.0
2022-10-18T01:00:58.909Z,13.812
2022-10-18T01:03:58.770Z,13.812
2022-10-18T01:06:58.744Z,13.375
2022-10-18T01:09:59.680Z,13.312
2022-10-18T01:12:58.839Z,13.562
2022-10-18T01:15:59.057Z,13.5
2022-10-18T01:18:58.738Z,13.437
2022-10-18T01:21:58.943Z,13.437
2022-10-18T01:24:58.745Z,13.625
2022-10-18T01:27:58.871Z,13.5
2022-10-18T01:30:59.077Z,13.562
2022-10-18T01:33:59.462Z,13.5
2022-10-18T01:36:58.676Z,13.437
2022-10-18T01:39:59.276Z,13.437
2022-10-18T01:42:58.304Z,13.437
2022-10-18T01:45:59.466Z,13.25
2022-10-18T01:48:59.472Z,13.25
2022-10-18T01:51:58.394Z,12.375
2022-10-18T01:54:59.504Z,12.312
2022-10-18T01:57:58.209Z,12.25
2022-10-18T02:00:59.295Z,12.187
2022-10-18T02:03:59.269Z,12.312
2022-10-18T02:06:59.043Z,12.25
2022-10-18T02:09:58.755Z,12.25
2022-10-18T02:12:58.718Z,12.25
2022-10-18T02:15:58.215Z,12.312
2022-10-18T02:18:58.821Z,12.312
2022-10-18T02:21:58.576Z,12.625
2022-10-18T02:24:58.767Z,13.25
2022-10-18T02:27:58.777Z,13.25
2022-10-18T02:30:58.674Z,13.312
2022-10-18T02:33:58.615Z,13.562
2022-10-18T02:36:59.256Z,13.562
2022-10-18T02:39:58.746Z,13.562
2022-10-18T02:42:59.237Z,13.562
2022-10-18T02:45:58.977Z,13.562
2022-10-18T02:48:59.446Z,13.812
2022-10-18T02:51:58.458Z,14.187
2022-10-18T02:54:59.318Z,14.25
2022-10-18T02:57:59.247Z,14.687
2022-10-18T03:00:59.704Z,14.812
2022-10-18T03:03:58.695Z,14.812
2022-10-18T03:06:58.394Z,15.75
2022-10-18T03:09:59.577Z,16.187
2022-10-18T03:12:58.801Z,16.5
2022-10-18T03:15:59.167Z,16.75
2022-10-18T03:18:59.192Z,16.875
2022-10-18T03:21:58.958Z,16.812
2022-10-18T03:24:59.004Z,17.062
2022-10-18T03:27:58.935Z,17.062
2022-10-18T03:30:59.064Z,16.875
2022-10-18T03:33:59.434Z,16.875
2022-10-18T03:37:02.083Z,16.812
2022-10-18T03:39:58.772Z,16.812
2022-10-18T03:42:59.023Z,16.625
2022-10-18T03:45:58.589Z,16.687
2022-10-18T03:48:58.703Z,16.687
2022-10-18T03:51:58.737Z,16.687
2022-10-18T03:54:58.573Z,16.562
2022-10-18T03:57:58.579Z,16.562
2022-10-18T04:00:59.559Z,16.5
2022-10-18T04:03:58.966Z,16.5
2022-10-18T04:06:59.517Z,16.5
2022-10-18T04:09:58.747Z,16.5
2022-10-18T04:12:58.837Z,16.5
2022-10-18T04:15:58.668Z,16.5
2022-10-18T04:18:59.142Z,16.375
2022-10-18T04:21:58.619Z,16.437
2022-10-18T04:24:59.217Z,16.375
2022-10-18T04:27:59.287Z,16.312
2022-10-18T04:30:59.173Z,16.312
2022-10-18T04:33:59.269Z,16.25
2022-10-18T04:36:58.942Z,16.25
2022-10-18T04:39:58.909Z,16.25
2022-10-18T04:42:58.209Z,16.437
2022-10-18T04:45:59.855Z,16.5
2022-10-18T04:48:58.925Z,16.125
2022-10-18T04:51:59.683Z,15.375
2022-10-18T04:54:59.790Z,16.5
2022-10-18T04:57:59.406Z,17.0
2022-10-18T05:00:59.673Z,17.0
2022-10-18T05:03:59.564Z,17.0
2022-10-18T05:06:59.625Z,17.125
2022-10-18T05:09:59.968Z,17.312
2022-10-18T05:12:58.765Z,17.437
2022-10-18T05:15:58.840Z,17.437
2022-10-18T05:18:59.273Z,17.437
2022-10-18T05:21:59.653Z,17.562
2022-10-18T05:24:59.374Z,17.5
2022-10-18T05:28:00.931Z,17.5
2022-10-18T05:30:58.724Z,17.5
2022-10-18T05:33:58.704Z,16.75
2022-10-18T05:36:59.166Z,16.875
2022-10-18T05:39:58.998Z,16.875
2022-10-18T05:42:59.153Z,17.437
2022-10-18T05:45:59.848Z,17.375
2022-10-18T05:48:59.629Z,17.5
2022-10-18T05:51:59.289Z,17.375
2022-10-18T05:54:59.512Z,17.125
2022-10-18T05:57:58.928Z,16.937
2022-10-18T06:00:59.659Z,17.437
2022-10-18T06:03:59.476Z,17.437
2022-10-18T06:06:58.888Z,17.562
2022-10-18T06:09:59.388Z,17.75
2022-10-18T06:12:59.816Z,17.75
2022-10-18T06:15:58.877Z,17.562
2022-10-18T06:18:59.625Z,17.562
2022-10-18T06:21:59.098Z,17.75
2022-10-18T06:24:58.964Z,17.687
2022-10-18T06:27:59.405Z,17.562
2022-10-18T06:30:59.798Z,17.562
2022-10-18T06:33:59.193Z,17.562
2022-10-18T06:36:59.258Z,17.312
2022-10-18T06:39:58.872Z,17.375
2022-10-18T06:43:00.663Z,17.562
2022-10-18T06:45:59.444Z,17.562
2022-10-18T06:48:58.555Z,17.625
2022-10-18T06:51:58.506Z,17.625
2022-10-18T06:54:58.299Z,17.5
2022-10-18T06:57:59.531Z,17.687
2022-10-18T07:00:59.076Z,17.687
2022-10-18T07:03:59.005Z,17.562
2022-10-18T07:06:58.585Z,17.437
2022-10-18T07:09:58.909Z,17.312
2022-10-18T07:13:13.747Z,17.312
2022-10-18T07:15:59.879Z,17.437
2022-10-18T07:18:58.645Z,17.687
2022-10-18T07:21:59.280Z,17.687
2022-10-18T07:24:59.633Z,17.937
2022-10-18T07:27:59.239Z,17.937
2022-10-18T07:31:02.393Z,17.937
2022-10-18T07:33:59.110Z,18.0
2022-10-18T07:36:59.574Z,18.0
2022-10-18T07:39:58.505Z,18.187
2022-10-18T07:43:01.638Z,18.187
2022-10-18T07:45:59.219Z,18.375
2022-10-18T07:48:58.346Z,18.312
2022-10-18T07:51:58.927Z,18.312
2022-10-18T07:54:58.856Z,18.5
2022-10-18T07:57:59.284Z,18.625
2022-10-18T08:00:59.230Z,18.75
2022-10-18T08:04:03.236Z,19.0
2022-10-18T08:06:58.915Z,19.0
2022-10-18T08:09:59.213Z,19.0
2022-10-18T08:12:58.583Z,19.25
2022-10-18T08:15:59.230Z,19.375
2022-10-18T08:18:58.533Z,19.562
2022-10-18T08:21:59.379Z,19.812
2022-10-18T08:24:58.898Z,19.625
2022-10-18T08:27:59.019Z,19.375
2022-10-18T08:30:58.898Z,19.0
2022-10-18T08:33:58.831Z,18.875
2022-10-18T08:36:58.800Z,18.875
2022-10-18T08:39:59.348Z,18.5
2022-10-18T08:42:58.634Z,18.812
2022-10-18T08:45:58.715Z,19.062
2022-10-18T08:48:58.774Z,19.687
2022-10-18T08:51:58.864Z,20.125
2022-10-18T08:54:58.819Z,19.687
2022-10-18T08:57:58.818Z,20.25
2022-10-18T09:00:59.679Z,20.437
2022-10-18T09:03:58.959Z,20.312
2022-10-18T09:06:59.148Z,19.875
2022-10-18T09:09:59.544Z,19.437
2022-10-18T09:12:58.797Z,19.437
2022-10-18T09:15:58.715Z,19.437
2022-10-18T09:18:58.848Z,19.375
2022-10-18T09:21:59.054Z,19.375
2022-10-18T09:24:59.090Z,19.375
2022-10-18T09:27:59.045Z,20.187
2022-10-18T09:31:00.131Z,20.187
2022-10-18T09:33:59.187Z,19.187
2022-10-18T09:36:59.728Z,19.187
2022-10-18T09:39:59.174Z,18.875
2022-10-18T09:42:59.203Z,18.812
2022-10-18T09:45:59.689Z,19.875
2022-10-18T09:48:58.621Z,20.0
2022-10-18T09:51:58.575Z,20.0
2022-10-18T09:54:59.247Z,20.0
2022-10-18T09:57:58.623Z,20.0
2022-10-18T10:00:58.838Z,20.0
2022-10-18T10:03:58.605Z,20.0
2022-10-18T10:06:59.270Z,20.687
2022-10-18T10:09:59.135Z,21.187
2022-10-18T10:12:58.403Z,21.25
2022-10-18T10:15:58.501Z,21.0
2022-10-18T10:18:59.298Z,21.375
2022-10-18T10:21:58.538Z,21.0
2022-10-18T10:24:59.441Z,21.437
2022-10-18T10:27:59.424Z,21.125
2022-10-18T10:30:59.119Z,21.125
2022-10-18T10:34:00.258Z,21.125
2022-10-18T10:36:58.458Z,21.5
2022-10-18T10:40:17.392Z,21.562
2022-10-18T10:43:08.837Z,21.75
2022-10-18T10:45:59.311Z,20.375
2022-10-18T10:49:21.064Z,20.375
2022-10-18T10:52:08.957Z,20.375
2022-10-18T10:55:06.225Z,20.687
2022-10-18T10:57:59.025Z,20.312
2022-10-18T11:00:59.659Z,21.375
2022-10-18T11:04:17.780Z,21.375
2022-10-18T11:06:59.078Z,21.687
2022-10-18T11:09:59.484Z,21.687
2022-10-18T11:12:58.680Z,21.687
2022-10-18T11:15:59.336Z,21.875
2022-10-18T11:18:58.351Z,21.25
2022-10-18T11:21:59.478Z,20.812
2022-10-18T11:24:59.290Z,22.437
2022-10-18T11:27:59.205Z,22.437
2022-10-18T11:30:59.899Z,21.312
2022-10-18T11:34:08.615Z,21.5
2022-10-18T11:37:22.889Z,20.687
2022-10-18T11:39:59.396Z,21.0
2022-10-18T11:42:59.067Z,20.812
2022-10-18T11:45:58.528Z,20.062
2022-10-18T11:48:59.245Z,19.687
2022-10-18T11:52:07.891Z,19.25
2022-10-18T11:54:58.974Z,19.062
2022-10-18T11:57:59.301Z,19.062
2022-10-18T12:00:59.534Z,20.312
2022-10-18T12:03:58.484Z,19.937
2022-10-18T12:06:59.020Z,19.75
2022-10-18T12:09:58.909Z,21.0
2022-10-18T12:12:59.320Z,20.812
2022-10-18T12:15:58.727Z,20.5
2022-10-18T12:18:58.961Z,20.312
2022-10-18T12:21:59.584Z,19.75
2022-10-18T12:24:58.680Z,19.75
2022-10-18T12:30:59.653Z,19.75
2022-10-18T12:33:58.980Z,19.937
2022-10-18T12:36:58.664Z,19.5
2022-10-18T12:40:09.706Z,19.0
2022-10-18T12:42:58.369Z,19.0
2022-10-18T12:45:59.814Z,19.25
2022-10-18T12:48:58.606Z,21.25
2022-10-18T12:51:58.722Z,22.0
2022-10-18T12:54:59.570Z,22.062
2022-10-18T12:57:59.173Z,20.875
2022-10-18T13:00:59.509Z,19.75
2022-10-18T13:03:58.884Z,19.562
2022-10-18T13:06:59.019Z,21.125
2022-10-18T13:09:59.457Z,21.125
2022-10-18T13:12:58.772Z,19.562
2022-10-18T13:15:58.939Z,19.875
2022-10-18T13:18:58.508Z,19.75
2022-10-18T13:21:58.707Z,20.5
2022-10-18T13:24:58.679Z,19.687
2022-10-18T13:27:59.293Z,19.687
2022-10-18T13:30:59.082Z,20.687
2022-10-18T13:33:58.772Z,21.062
2022-10-18T13:36:58.920Z,21.312
2022-10-18T13:39:59.252Z,20.937
2022-10-18T13:42:58.414Z,21.187
2022-10-18T13:45:58.822Z,20.875
2022-10-18T13:48:58.451Z,20.687
2022-10-18T13:51:59.059Z,20.375
2022-10-18T13:54:58.766Z,20.125
2022-10-18T13:57:58.688Z,19.937
2022-10-18T14:00:58.900Z,19.437
2022-10-18T14:03:59.033Z,19.437
2022-10-18T14:07:02.039Z,18.437
2022-10-18T14:10:03.412Z,18.5
2022-10-18T14:12:59.791Z,18.5
2022-10-18T14:15:59.300Z,18.375
2022-10-18T14:18:59.527Z,18.125
2022-10-18T14:21:58.915Z,18.125
2022-10-18T14:24:59.071Z,18.25
2022-10-18T14:27:58.949Z,18.187
2022-10-18T14:31:00.004Z,18.062
2022-10-18T14:33:59.217Z,17.937
2022-10-18T14:36:59.462Z,17.937
2022-10-18T14:39:58.656Z,17.875
2022-10-18T14:43:00.160Z,17.875
2022-10-18T14:45:59.799Z,17.687
2022-10-18T14:48:58.609Z,17.625
2022-10-18T14:51:59.595Z,17.75
2022-10-18T14:54:59.720Z,17.75
2022-10-18T14:57:59.456Z,17.687
2022-10-18T15:00:59.030Z,17.687
2022-10-18T15:03:59.155Z,17.687
2022-10-18T15:06:59.593Z,17.625
2022-10-18T15:09:59.307Z,17.5
2022-10-18T15:13:09.266Z,17.375
2022-10-18T15:15:58.945Z,17.375
2022-10-18T15:18:58.565Z,17.312
2022-10-18T15:22:13.563Z,17.25
2022-10-18T15:24:59.319Z,17.312
2022-10-18T15:27:59.361Z,17.312
2022-10-18T15:30:58.953Z,17.25
2022-10-18T15:33:58.545Z,17.125
2022-10-18T15:36:58.957Z,17.125
2022-10-18T15:39:59.834Z,17.062
2022-10-18T15:42:59.240Z,17.062
2022-10-18T15:46:01.842Z,16.875
2022-10-18T15:48:59.740Z,16.875
2022-10-18T15:51:59.650Z,16.812
2022-10-18T15:54:59.574Z,16.75
2022-10-18T15:57:59.585Z,16.75
2022-10-18T16:01:00.471Z,16.562
2022-10-18T16:03:59.252Z,16.5
2022-10-18T16:06:59.078Z,16.437
2022-10-18T16:09:59.645Z,16.312
2022-10-18T16:12:58.557Z,16.25
2022-10-18T16:15:59.692Z,16.125
2022-10-18T16:18:59.569Z,16.125
2022-10-18T16:22:05.239Z,15.875
2022-10-18T16:24:58.951Z,15.875
2022-10-18T16:27:59.438Z,15.937
2022-10-18T16:30:59.851Z,15.937
2022-10-18T16:33:59.181Z,15.937
2022-10-18T16:36:59.285Z,15.875
2022-10-18T16:39:59.067Z,15.937
2022-10-18T16:42:59.408Z,15.937
2022-10-18T16:45:59.186Z,15.937
2022-10-18T16:48:59.448Z,15.875
2022-10-18T16:51:59.131Z,15.875
2022-10-18T16:54:59.504Z,15.875
2022-10-18T16:57:59.010Z,15.687
2022-10-18T17:00:58.777Z,15.562
2022-10-18T17:03:59.719Z,15.437
2022-10-18T17:06:59.260Z,15.437
2022-10-18T17:09:58.694Z,15.375
2022-10-18T17:12:59.185Z,15.375
2022-10-18T17:15:59.462Z,15.375
2022-10-18T17:18:59.530Z,15.437
2022-10-18T17:22:02.541Z,15.5
2022-10-18T17:24:59.388Z,15.5
2022-10-18T17:27:59.333Z,15.5
2022-10-18T17:31:00.126Z,15.437
2022-10-18T17:33:59.133Z,15.437
2022-10-18T17:37:00.390Z,15.437
2022-10-18T17:39:58.296Z,15.437
2022-10-18T17:42:58.886Z,15.437
2022-10-18T17:45:59.542Z,15.437
2022-10-18T17:48:58.350Z,15.375
2022-10-18T17:52:03.301Z,15.375
2022-10-18T17:54:59.221Z,15.375
2022-10-18T17:57:58.976Z,15.312
2022-10-18T18:01:25.919Z,15.312
2022-10-18T18:03:59.450Z,15.25
2022-10-18T18:06:58.778Z,15.25
2022-10-18T18:09:59.105Z,15.25
2022-10-18T18:12:59.289Z,15.062
2022-10-18T18:15:59.367Z,15.062
2022-10-18T18:18:58.743Z,14.937
2022-10-18T18:21:58.868Z,14.875
2022-10-18T18:24:58.758Z,14.812
2022-10-18T18:28:01.459Z,14.812
2022-10-18T18:30:59.450Z,14.75
2022-10-18T18:33:58.902Z,14.75
2022-10-18T18:36:59.441Z,14.75
2022-10-18T18:39:59.708Z,14.687
2022-10-18T18:43:07.125Z,14.687
2022-10-18T18:45:58.413Z,14.687
2022-10-18T18:48:59.151Z,14.687
2022-10-18T18:51:59.501Z,14.687
2022-10-18T18:54:59.121Z,14.687
2022-10-18T18:57:58.792Z,14.687
2022-10-18T19:00:59.066Z,14.625
2022-10-18T19:03:59.095Z,14.562
2022-10-18T19:06:58.626Z,14.562
2022-10-18T19:09:59.687Z,14.562
2022-10-18T19:12:58.947Z,14.562
2022-10-18T19:15:59.001Z,14.25
2022-10-18T19:18:58.763Z,14.187
2022-10-18T19:21:59.000Z,14.187
2022-10-18T19:24:58.840Z,14.25
2022-10-18T19:27:59.360Z,14.375
2022-10-18T19:30:58.817Z,14.375
2022-10-18T19:33:59.224Z,14.437
2022-10-18T19:36:58.819Z,14.437
2022-10-18T19:39:59.641Z,14.5
2022-10-18T19:42:58.836Z,14.5
2022-10-18T19:45:58.676Z,14.5
2022-10-18T19:48:59.517Z,14.5
2022-10-18T19:51:59.091Z,14.5
2022-10-18T19:54:58.940Z,14.5
2022-10-18T19:57:58.567Z,14.437
2022-10-18T20:00:59.032Z,14.5
2022-10-18T20:03:59.130Z,14.5
2022-10-18T20:06:59.721Z,14.437
2022-10-18T20:09:59.222Z,14.375
2022-10-18T20:12:59.727Z,14.25
2022-10-18T20:15:59.470Z,14.125
2022-10-18T20:18:59.161Z,13.937
2022-10-18T20:21:59.136Z,13.937
2022-10-18T20:24:58.520Z,13.375
2022-10-18T20:27:59.216Z,13.5
2022-10-18T20:30:58.967Z,13.375
2022-10-18T20:33:59.104Z,13.125
2022-10-18T20:36:58.800Z,13.125
2022-10-18T20:39:59.757Z,13.0
2022-10-18T20:43:03.607Z,12.937
2022-10-18T20:45:59.668Z,12.812
2022-10-18T20:48:59.185Z,12.75
2022-10-18T20:51:59.306Z,12.875
2022-10-18T20:54:59.240Z,12.875
2022-10-18T20:57:58.252Z,12.5
2022-10-18T21:00:58.750Z,12.375
2022-10-18T21:03:59.051Z,12.25
2022-10-18T21:06:59.133Z,12.25
2022-10-18T21:09:59.303Z,12.312
2022-10-18T21:12:59.291Z,12.25
2022-10-18T21:15:58.891Z,12.25
2022-10-18T21:18:58.271Z,12.375
2022-10-18T21:21:58.632Z,12.375
2022-10-18T21:24:59.173Z,12.437
2022-10-18T21:27:59.118Z,12.562
2022-10-18T21:30:59.646Z,12.562
2022-10-18T21:33:59.370Z,12.562
2022-10-18T21:36:58.930Z,12.5
2022-10-18T21:39:59.932Z,12.5
2022-10-18T21:42:58.937Z,12.5
2022-10-18T21:45:58.938Z,12.312
2022-10-18T21:48:58.974Z,12.312
2022-10-18T21:51:59.340Z,12.25
2022-10-18T21:54:59.441Z,12.312
2022-10-18T21:57:58.655Z,12.25
2022-10-18T22:00:59.695Z,12.312
2022-10-18T22:03:59.506Z,12.375
2022-10-18T22:06:59.262Z,12.25
2022-10-18T22:09:59.387Z,12.25
2022-10-18T22:12:58.560Z,11.562
2022-10-18T22:15:59.055Z,11.437
2022-10-18T22:18:58.453Z,11.375
2022-10-18T22:21:59.287Z,11.25
2022-10-18T22:24:58.440Z,11.25
2022-10-18T22:27:58.799Z,11.375
2022-10-18T22:30:58.915Z,11.375
2022-10-18T22:33:58.371Z,11.5
2022-10-18T22:36:58.202Z,11.437
2022-10-18T22:39:59.098Z,11.437
2022-10-18T22:42:59.236Z,11.437
2022-10-18T22:45:59.276Z,11.25
2022-10-18T22:48:58.098Z,11.187
2022-10-18T22:51:58.921Z,11.187
2022-10-18T22:54:58.947Z,11.312
2022-10-18T22:57:58.892Z,11.312
2022-10-18T23:01:01.091Z,11.437
2022-10-18T23:03:59.030Z,11.625
2022-10-18T23:06:58.801Z,11.562
2022-10-18T23:09:58.622Z,11.437
2022-10-18T23:12:58.817Z,11.312
2022-10-18T23:16:04.120Z,11.25
2022-10-18T23:18:58.465Z,11.125
2022-10-18T23:21:59.241Z,11.125
2022-10-18T23:24:59.162Z,11.187
2022-10-18T23:27:58.732Z,11.125
2022-10-18T23:31:12.482Z,11.062
2022-10-18T23:33:58.695Z,11.125
2022-10-18T23:36:58.565Z,11.125
2022-10-18T23:39:59.340Z,11.125
2022-10-18T23:42:59.292Z,11.75
2022-10-18T23:45:59.112Z,12.062
2022-10-18T23:48:59.249Z,12.0
2022-10-18T23:51:59.337Z,12.125
2022-10-18T23:54:59.028Z,11.937
2022-10-18T23:57:59.090Z,11.812
